sensor_id;sensor_type;location;lat;lon;timestamp;P1;durP1;ratioP1;P2;durP2;ratioP2
12776;SDS011;6452;41.572;23.732;2023-04-25T00:00:20;0.90;;;0.90;;
12776;SDS011;6452;41.572;23.732;2023-04-25T00:02:46;0.77;;;0.77;;
12776;SDS011;6452;41.572;23.732;2023-04-25T00:05:13;0.90;;;0.90;;
12776;SDS011;6452;41.572;23.732;2023-04-25T00:07:40;1.08;;;1.00;;
12776;SDS011;6452;41.572;23.732;2023-04-25T00:10:08;1.02;;;1.02;;
12776;SDS011;6452;41.572;23.732;2023-04-25T00:12:37;0.90;;;0.90;;
12776;SDS011;6452;41.572;23.732;2023-04-25T00:15:04;0.88;;;0.88;;
12776;SDS011;6452;41.572;23.732;2023-04-25T00:17:31;1.48;;;1.00;;
12776;SDS011;6452;41.572;23.732;2023-04-25T00:19:58;1.13;;;1.00;;
12776;SDS011;6452;41.572;23.732;2023-04-25T00:22:24;0.95;;;0.95;;
12776;SDS011;6452;41.572;23.732;2023-04-25T00:24:49;0.93;;;0.93;;
12776;SDS011;6452;41.572;23.732;2023-04-25T00:27:16;1.05;;;1.05;;
12776;SDS011;6452;41.572;23.732;2023-04-25T00:29:42;0.70;;;0.70;;
12776;SDS011;6452;41.572;23.732;2023-04-25T00:32:08;0.80;;;0.80;;
12776;SDS011;6452;41.572;23.732;2023-04-25T00:34:35;0.90;;;0.90;;
12776;SDS011;6452;41.572;23.732;2023-04-25T00:37:01;0.77;;;0.77;;
12776;SDS011;6452;41.572;23.732;2023-04-25T00:39:27;0.88;;;0.88;;
12776;SDS011;6452;41.572;23.732;2023-04-25T00:41:54;1.10;;;1.10;;
12776;SDS011;6452;41.572;23.732;2023-04-25T00:44:20;1.00;;;1.00;;
12776;SDS011;6452;41.572;23.732;2023-04-25T00:46:47;0.90;;;0.90;;
12776;SDS011;6452;41.572;23.732;2023-04-25T00:49:12;1.17;;;1.17;;
12776;SDS011;6452;41.572;23.732;2023-04-25T00:51:40;0.90;;;0.90;;
12776;SDS011;6452;41.572;23.732;2023-04-25T00:54:07;0.95;;;0.95;;
12776;SDS011;6452;41.572;23.732;2023-04-25T00:56:32;1.00;;;1.00;;
12776;SDS011;6452;41.572;23.732;2023-04-25T00:58:58;0.85;;;0.85;;
12776;SDS011;6452;41.572;23.732;2023-04-25T01:01:24;2.25;;;0.90;;
12776;SDS011;6452;41.572;23.732;2023-04-25T01:03:50;1.00;;;1.00;;
12776;SDS011;6452;41.572;23.732;2023-04-25T01:06:16;0.85;;;0.85;;
12776;SDS011;6452;41.572;23.732;2023-04-25T01:08:42;0.80;;;0.80;;
12776;SDS011;6452;41.572;23.732;2023-04-25T01:11:08;1.08;;;1.08;;
12776;SDS011;6452;41.572;23.732;2023-04-25T01:13:34;0.85;;;0.85;;
12776;SDS011;6452;41.572;23.732;2023-04-25T01:16:00;1.00;;;1.00;;
12776;SDS011;6452;41.572;23.732;2023-04-25T01:18:26;0.98;;;0.98;;
12776;SDS011;6452;41.572;23.732;2023-04-25T01:20:52;0.90;;;0.90;;
12776;SDS011;6452;41.572;23.732;2023-04-25T01:23:21;1.13;;;1.13;;
12776;SDS011;6452;41.572;23.732;2023-04-25T01:25:47;1.08;;;1.08;;
12776;SDS011;6452;41.572;23.732;2023-04-25T01:28:13;1.08;;;1.08;;
12776;SDS011;6452;41.572;23.732;2023-04-25T01:30:39;0.85;;;0.85;;
12776;SDS011;6452;41.572;23.732;2023-04-25T01:33:06;0.88;;;0.88;;
12776;SDS011;6452;41.572;23.732;2023-04-25T01:35:33;1.67;;;1.05;;
12776;SDS011;6452;41.572;23.732;2023-04-25T01:37:59;0.90;;;0.90;;
12776;SDS011;6452;41.572;23.732;2023-04-25T01:40:25;1.10;;;1.10;;
12776;SDS011;6452;41.572;23.732;2023-04-25T01:42:52;0.90;;;0.90;;
12776;SDS011;6452;41.572;23.732;2023-04-25T01:45:19;0.93;;;0.93;;
12776;SDS011;6452;41.572;23.732;2023-04-25T01:47:44;1.13;;;1.13;;
12776;SDS011;6452;41.572;23.732;2023-04-25T01:50:14;1.08;;;1.08;;
12776;SDS011;6452;41.572;23.732;2023-04-25T01:52:41;1.00;;;1.00;;
12776;SDS011;6452;41.572;23.732;2023-04-25T01:55:07;0.90;;;0.90;;
12776;SDS011;6452;41.572;23.732;2023-04-25T01:57:34;0.93;;;0.93;;
12776;SDS011;6452;41.572;23.732;2023-04-25T02:00:02;1.10;;;1.10;;
12776;SDS011;6452;41.572;23.732;2023-04-25T02:02:28;1.02;;;1.02;;
12776;SDS011;6452;41.572;23.732;2023-04-25T02:04:55;1.10;;;1.10;;
12776;SDS011;6452;41.572;23.732;2023-04-25T02:07:25;0.93;;;0.93;;
12776;SDS011;6452;41.572;23.732;2023-04-25T02:09:51;1.20;;;1.20;;
12776;SDS011;6452;41.572;23.732;2023-04-25T02:12:17;0.93;;;0.93;;
12776;SDS011;6452;41.572;23.732;2023-04-25T02:14:43;1.33;;;1.27;;
12776;SDS011;6452;41.572;23.732;2023-04-25T02:17:09;1.20;;;1.20;;
12776;SDS011;6452;41.572;23.732;2023-04-25T02:19:35;1.00;;;1.00;;
12776;SDS011;6452;41.572;23.732;2023-04-25T02:22:01;1.05;;;1.05;;
12776;SDS011;6452;41.572;23.732;2023-04-25T02:24:27;1.20;;;1.13;;
12776;SDS011;6452;41.572;23.732;2023-04-25T02:26:53;1.25;;;1.02;;
12776;SDS011;6452;41.572;23.732;2023-04-25T02:29:21;1.10;;;1.10;;
12776;SDS011;6452;41.572;23.732;2023-04-25T02:31:47;1.33;;;1.33;;
12776;SDS011;6452;41.572;23.732;2023-04-25T02:34:13;1.05;;;1.05;;
12776;SDS011;6452;41.572;23.732;2023-04-25T02:36:39;1.30;;;1.30;;
12776;SDS011;6452;41.572;23.732;2023-04-25T02:39:06;1.00;;;1.00;;
12776;SDS011;6452;41.572;23.732;2023-04-25T02:41:32;1.60;;;1.50;;
12776;SDS011;6452;41.572;23.732;2023-04-25T02:43:58;2.10;;;1.05;;
12776;SDS011;6452;41.572;23.732;2023-04-25T02:46:25;1.40;;;1.20;;
12776;SDS011;6452;41.572;23.732;2023-04-25T02:48:51;1.35;;;1.30;;
12776;SDS011;6452;41.572;23.732;2023-04-25T02:51:17;1.10;;;1.10;;
12776;SDS011;6452;41.572;23.732;2023-04-25T02:53:43;1.23;;;1.13;;
12776;SDS011;6452;41.572;23.732;2023-04-25T02:56:10;1.05;;;1.05;;
12776;SDS011;6452;41.572;23.732;2023-04-25T02:58:36;1.27;;;1.17;;
12776;SDS011;6452;41.572;23.732;2023-04-25T03:01:02;1.00;;;1.00;;
12776;SDS011;6452;41.572;23.732;2023-04-25T03:03:28;1.75;;;1.17;;
12776;SDS011;6452;41.572;23.732;2023-04-25T03:05:54;1.08;;;1.08;;
12776;SDS011;6452;41.572;23.732;2023-04-25T03:08:20;1.70;;;1.60;;
12776;SDS011;6452;41.572;23.732;2023-04-25T03:10:46;1.63;;;1.63;;
12776;SDS011;6452;41.572;23.732;2023-04-25T03:13:13;1.40;;;1.40;;
12776;SDS011;6452;41.572;23.732;2023-04-25T03:15:39;1.23;;;1.23;;
12776;SDS011;6452;41.572;23.732;2023-04-25T03:18:05;1.35;;;1.35;;
12776;SDS011;6452;41.572;23.732;2023-04-25T03:20:35;1.30;;;1.30;;
12776;SDS011;6452;41.572;23.732;2023-04-25T03:23:01;1.50;;;1.50;;
12776;SDS011;6452;41.572;23.732;2023-04-25T03:25:27;1.60;;;1.50;;
12776;SDS011;6452;41.572;23.732;2023-04-25T03:27:53;2.15;;;2.05;;
12776;SDS011;6452;41.572;23.732;2023-04-25T03:30:20;1.52;;;1.42;;
12776;SDS011;6452;41.572;23.732;2023-04-25T03:32:47;1.88;;;1.77;;
12776;SDS011;6452;41.572;23.732;2023-04-25T03:35:13;3.17;;;2.40;;
12776;SDS011;6452;41.572;23.732;2023-04-25T03:37:39;2.38;;;2.17;;
12776;SDS011;6452;41.572;23.732;2023-04-25T03:40:06;1.80;;;1.70;;
12776;SDS011;6452;41.572;23.732;2023-04-25T03:42:34;1.90;;;1.80;;
12776;SDS011;6452;41.572;23.732;2023-04-25T03:45:00;1.80;;;1.70;;
12776;SDS011;6452;41.572;23.732;2023-04-25T03:47:26;1.70;;;1.60;;
12776;SDS011;6452;41.572;23.732;2023-04-25T03:49:52;1.30;;;1.30;;
12776;SDS011;6452;41.572;23.732;2023-04-25T03:52:19;1.88;;;1.77;;
12776;SDS011;6452;41.572;23.732;2023-04-25T03:54:45;1.38;;;1.38;;
12776;SDS011;6452;41.572;23.732;2023-04-25T03:57:11;1.40;;;1.40;;
12776;SDS011;6452;41.572;23.732;2023-04-25T03:59:37;1.63;;;1.52;;
12776;SDS011;6452;41.572;23.732;2023-04-25T04:02:03;1.23;;;1.23;;
12776;SDS011;6452;41.572;23.732;2023-04-25T04:04:29;1.58;;;1.58;;
12776;SDS011;6452;41.572;23.732;2023-04-25T04:06:55;3.08;;;1.85;;
12776;SDS011;6452;41.572;23.732;2023-04-25T04:09:21;1.42;;;1.42;;
12776;SDS011;6452;41.572;23.732;2023-04-25T04:11:47;3.67;;;1.50;;
12776;SDS011;6452;41.572;23.732;2023-04-25T04:14:13;1.25;;;1.25;;
12776;SDS011;6452;41.572;23.732;2023-04-25T04:16:39;7.07;;;4.05;;
12776;SDS011;6452;41.572;23.732;2023-04-25T04:19:06;1.50;;;1.50;;
12776;SDS011;6452;41.572;23.732;2023-04-25T04:21:32;2.75;;;2.65;;
12776;SDS011;6452;41.572;23.732;2023-04-25T04:23:58;2.75;;;2.63;;
12776;SDS011;6452;41.572;23.732;2023-04-25T04:26:25;1.70;;;1.60;;
12776;SDS011;6452;41.572;23.732;2023-04-25T04:28:51;1.73;;;1.63;;
12776;SDS011;6452;41.572;23.732;2023-04-25T04:31:20;1.80;;;1.80;;
12776;SDS011;6452;41.572;23.732;2023-04-25T04:33:47;1.70;;;1.60;;
12776;SDS011;6452;41.572;23.732;2023-04-25T04:36:13;1.00;;;1.00;;
12776;SDS011;6452;41.572;23.732;2023-04-25T04:38:39;1.88;;;1.77;;
12776;SDS011;6452;41.572;23.732;2023-04-25T04:41:06;2.00;;;1.90;;
12776;SDS011;6452;41.572;23.732;2023-04-25T04:43:31;1.60;;;1.50;;
12776;SDS011;6452;41.572;23.732;2023-04-25T04:46:01;1.80;;;1.70;;
12776;SDS011;6452;41.572;23.732;2023-04-25T04:48:32;1.73;;;1.63;;
12776;SDS011;6452;41.572;23.732;2023-04-25T04:50:59;2.20;;;1.60;;
12776;SDS011;6452;41.572;23.732;2023-04-25T04:53:29;2.72;;;2.50;;
12776;SDS011;6452;41.572;23.732;2023-04-25T04:55:55;2.25;;;2.15;;
12776;SDS011;6452;41.572;23.732;2023-04-25T04:58:21;1.95;;;1.85;;
12776;SDS011;6452;41.572;23.732;2023-04-25T05:00:48;2.20;;;2.08;;
12776;SDS011;6452;41.572;23.732;2023-04-25T05:03:15;2.67;;;2.47;;
12776;SDS011;6452;41.572;23.732;2023-04-25T05:05:41;3.03;;;2.78;;
12776;SDS011;6452;41.572;23.732;2023-04-25T05:08:07;2.10;;;2.00;;
12776;SDS011;6452;41.572;23.732;2023-04-25T05:10:33;3.70;;;2.70;;
12776;SDS011;6452;41.572;23.732;2023-04-25T05:12:59;3.55;;;2.78;;
12776;SDS011;6452;41.572;23.732;2023-04-25T05:15:25;2.83;;;2.63;;
12776;SDS011;6452;41.572;23.732;2023-04-25T05:17:51;1.73;;;1.63;;
12776;SDS011;6452;41.572;23.732;2023-04-25T05:20:17;1.73;;;1.63;;
12776;SDS011;6452;41.572;23.732;2023-04-25T05:22:44;2.28;;;2.17;;
12776;SDS011;6452;41.572;23.732;2023-04-25T05:25:10;3.63;;;2.85;;
12776;SDS011;6452;41.572;23.732;2023-04-25T05:27:37;2.22;;;2.00;;
12776;SDS011;6452;41.572;23.732;2023-04-25T05:30:03;1.80;;;1.70;;
12776;SDS011;6452;41.572;23.732;2023-04-25T05:32:30;1.75;;;1.65;;
12776;SDS011;6452;41.572;23.732;2023-04-25T05:34:56;4.75;;;1.88;;
12776;SDS011;6452;41.572;23.732;2023-04-25T05:37:22;2.13;;;2.03;;
12776;SDS011;6452;41.572;23.732;2023-04-25T05:39:48;1.40;;;1.40;;
12776;SDS011;6452;41.572;23.732;2023-04-25T05:42:14;1.67;;;1.60;;
12776;SDS011;6452;41.572;23.732;2023-04-25T05:44:40;2.38;;;2.17;;
12776;SDS011;6452;41.572;23.732;2023-04-25T05:47:06;1.80;;;1.75;;
12776;SDS011;6452;41.572;23.732;2023-04-25T05:49:33;1.90;;;1.80;;
12776;SDS011;6452;41.572;23.732;2023-04-25T05:51:58;2.35;;;2.15;;
12776;SDS011;6452;41.572;23.732;2023-04-25T05:54:25;2.35;;;2.10;;
12776;SDS011;6452;41.572;23.732;2023-04-25T05:56:51;2.38;;;2.28;;
12776;SDS011;6452;41.572;23.732;2023-04-25T05:59:17;2.30;;;2.20;;
12776;SDS011;6452;41.572;23.732;2023-04-25T06:01:43;1.85;;;1.75;;
12776;SDS011;6452;41.572;23.732;2023-04-25T06:04:09;1.90;;;1.80;;
12776;SDS011;6452;41.572;23.732;2023-04-25T06:06:35;2.40;;;2.25;;
12776;SDS011;6452;41.572;23.732;2023-04-25T06:09:01;2.35;;;2.15;;
12776;SDS011;6452;41.572;23.732;2023-04-25T06:11:27;2.38;;;2.20;;
12776;SDS011;6452;41.572;23.732;2023-04-25T06:13:53;2.70;;;2.50;;
12776;SDS011;6452;41.572;23.732;2023-04-25T06:16:19;3.50;;;2.10;;
12776;SDS011;6452;41.572;23.732;2023-04-25T06:18:45;2.28;;;2.25;;
12776;SDS011;6452;41.572;23.732;2023-04-25T06:21:11;2.58;;;2.47;;
12776;SDS011;6452;41.572;23.732;2023-04-25T06:23:38;2.97;;;2.78;;
12776;SDS011;6452;41.572;23.732;2023-04-25T06:26:03;2.70;;;2.53;;
12776;SDS011;6452;41.572;23.732;2023-04-25T06:28:30;2.70;;;2.55;;
12776;SDS011;6452;41.572;23.732;2023-04-25T06:30:56;2.05;;;1.95;;
12776;SDS011;6452;41.572;23.732;2023-04-25T06:33:22;2.17;;;2.08;;
12776;SDS011;6452;41.572;23.732;2023-04-25T06:35:49;2.50;;;2.30;;
12776;SDS011;6452;41.572;23.732;2023-04-25T06:38:15;2.30;;;2.20;;
12776;SDS011;6452;41.572;23.732;2023-04-25T06:40:42;1.92;;;1.92;;
12776;SDS011;6452;41.572;23.732;2023-04-25T06:43:08;2.85;;;2.65;;
12776;SDS011;6452;41.572;23.732;2023-04-25T06:45:34;2.45;;;1.85;;
12776;SDS011;6452;41.572;23.732;2023-04-25T06:48:00;2.03;;;1.92;;
12776;SDS011;6452;41.572;23.732;2023-04-25T06:50:26;1.60;;;1.60;;
12776;SDS011;6452;41.572;23.732;2023-04-25T06:52:52;2.03;;;1.92;;
12776;SDS011;6452;41.572;23.732;2023-04-25T06:55:19;1.70;;;1.60;;
12776;SDS011;6452;41.572;23.732;2023-04-25T06:57:45;1.52;;;1.50;;
12776;SDS011;6452;41.572;23.732;2023-04-25T07:00:12;1.60;;;1.60;;
12776;SDS011;6452;41.572;23.732;2023-04-25T07:02:37;1.60;;;1.50;;
12776;SDS011;6452;41.572;23.732;2023-04-25T07:05:04;1.90;;;1.60;;
12776;SDS011;6452;41.572;23.732;2023-04-25T07:07:30;1.83;;;1.70;;
12776;SDS011;6452;41.572;23.732;2023-04-25T07:09:56;1.60;;;1.50;;
12776;SDS011;6452;41.572;23.732;2023-04-25T07:12:23;1.58;;;1.58;;
12776;SDS011;6452;41.572;23.732;2023-04-25T07:14:49;1.70;;;1.70;;
12776;SDS011;6452;41.572;23.732;2023-04-25T07:17:15;2.00;;;1.90;;
12776;SDS011;6452;41.572;23.732;2023-04-25T07:19:41;1.83;;;1.75;;
12776;SDS011;6452;41.572;23.732;2023-04-25T07:22:09;1.77;;;1.77;;
12776;SDS011;6452;41.572;23.732;2023-04-25T07:24:34;1.98;;;1.90;;
12776;SDS011;6452;41.572;23.732;2023-04-25T07:27:00;2.17;;;2.08;;
12776;SDS011;6452;41.572;23.732;2023-04-25T07:29:27;2.35;;;2.17;;
12776;SDS011;6452;41.572;23.732;2023-04-25T07:31:58;3.28;;;2.13;;
12776;SDS011;6452;41.572;23.732;2023-04-25T07:34:24;1.73;;;1.70;;
12776;SDS011;6452;41.572;23.732;2023-04-25T07:36:50;2.65;;;2.45;;
12776;SDS011;6452;41.572;23.732;2023-04-25T07:39:20;4.32;;;2.20;;
12776;SDS011;6452;41.572;23.732;2023-04-25T07:41:48;2.38;;;2.28;;
12776;SDS011;6452;41.572;23.732;2023-04-25T07:44:14;2.63;;;2.42;;
12776;SDS011;6452;41.572;23.732;2023-04-25T07:46:40;2.50;;;2.30;;
12776;SDS011;6452;41.572;23.732;2023-04-25T07:49:06;2.55;;;2.42;;
12776;SDS011;6452;41.572;23.732;2023-04-25T07:51:33;3.10;;;2.80;;
12776;SDS011;6452;41.572;23.732;2023-04-25T07:53:59;3.38;;;3.08;;
12776;SDS011;6452;41.572;23.732;2023-04-25T07:56:26;2.80;;;2.60;;
12776;SDS011;6452;41.572;23.732;2023-04-25T07:58:52;2.90;;;2.70;;
12776;SDS011;6452;41.572;23.732;2023-04-25T08:01:18;3.03;;;2.83;;
12776;SDS011;6452;41.572;23.732;2023-04-25T08:03:46;3.05;;;2.83;;
12776;SDS011;6452;41.572;23.732;2023-04-25T08:06:13;2.95;;;2.75;;
12776;SDS011;6452;41.572;23.732;2023-04-25T08:08:39;3.22;;;2.95;;
12776;SDS011;6452;41.572;23.732;2023-04-25T08:11:06;3.17;;;2.97;;
12776;SDS011;6452;41.572;23.732;2023-04-25T08:13:32;3.58;;;2.90;;
12776;SDS011;6452;41.572;23.732;2023-04-25T08:15:58;2.67;;;2.38;;
12776;SDS011;6452;41.572;23.732;2023-04-25T08:18:28;3.40;;;3.13;;
12776;SDS011;6452;41.572;23.732;2023-04-25T08:20:54;3.85;;;3.50;;
12776;SDS011;6452;41.572;23.732;2023-04-25T08:23:20;4.65;;;4.20;;
12776;SDS011;6452;41.572;23.732;2023-04-25T08:25:46;3.17;;;2.97;;
12776;SDS011;6452;41.572;23.732;2023-04-25T08:28:12;2.70;;;2.60;;
12776;SDS011;6452;41.572;23.732;2023-04-25T08:30:38;3.22;;;2.92;;
12776;SDS011;6452;41.572;23.732;2023-04-25T08:33:04;2.85;;;2.50;;
12776;SDS011;6452;41.572;23.732;2023-04-25T08:35:30;2.45;;;2.35;;
12776;SDS011;6452;41.572;23.732;2023-04-25T08:37:58;2.45;;;2.25;;
12776;SDS011;6452;41.572;23.732;2023-04-25T08:40:24;2.67;;;2.50;;
12776;SDS011;6452;41.572;23.732;2023-04-25T08:42:54;2.75;;;2.55;;
12776;SDS011;6452;41.572;23.732;2023-04-25T08:45:21;2.72;;;2.35;;
12776;SDS011;6452;41.572;23.732;2023-04-25T08:47:46;2.50;;;2.30;;
12776;SDS011;6452;41.572;23.732;2023-04-25T08:50:14;2.95;;;1.83;;
12776;SDS011;6452;41.572;23.732;2023-04-25T08:52:43;2.13;;;2.03;;
12776;SDS011;6452;41.572;23.732;2023-04-25T08:55:09;1.73;;;1.73;;
12776;SDS011;6452;41.572;23.732;2023-04-25T08:57:34;1.50;;;1.50;;
12776;SDS011;6452;41.572;23.732;2023-04-25T09:00:01;2.35;;;1.48;;
12776;SDS011;6452;41.572;23.732;2023-04-25T09:02:27;1.98;;;1.90;;
12776;SDS011;6452;41.572;23.732;2023-04-25T09:04:53;1.38;;;1.38;;
12776;SDS011;6452;41.572;23.732;2023-04-25T09:07:20;1.38;;;1.38;;
12776;SDS011;6452;41.572;23.732;2023-04-25T09:09:47;1.38;;;1.30;;
12776;SDS011;6452;41.572;23.732;2023-04-25T09:12:13;1.85;;;1.55;;
12776;SDS011;6452;41.572;23.732;2023-04-25T09:14:38;1.90;;;1.33;;
12776;SDS011;6452;41.572;23.732;2023-04-25T09:17:04;1.00;;;1.00;;
12776;SDS011;6452;41.572;23.732;2023-04-25T09:19:33;1.30;;;1.30;;
12776;SDS011;6452;41.572;23.732;2023-04-25T09:22:01;1.80;;;1.70;;
12776;SDS011;6452;41.572;23.732;2023-04-25T09:26:57;1.30;;;1.30;;
12776;SDS011;6452;41.572;23.732;2023-04-25T09:29:33;0.95;;;0.95;;
12776;SDS011;6452;41.572;23.732;2023-04-25T09:32:19;1.55;;;1.55;;
12776;SDS011;6452;41.572;23.732;2023-04-25T09:34:47;1.30;;;1.20;;
12776;SDS011;6452;41.572;23.732;2023-04-25T09:37:26;0.93;;;0.93;;
12776;SDS011;6452;41.572;23.732;2023-04-25T09:39:58;1.13;;;1.08;;
12776;SDS011;6452;41.572;23.732;2023-04-25T09:42:26;1.55;;;1.45;;
12776;SDS011;6452;41.572;23.732;2023-04-25T09:44:53;1.00;;;1.00;;
12776;SDS011;6452;41.572;23.732;2023-04-25T09:47:20;1.73;;;1.60;;
12776;SDS011;6452;41.572;23.732;2023-04-25T09:49:48;1.40;;;1.30;;
12776;SDS011;6452;41.572;23.732;2023-04-25T09:52:19;2.10;;;1.23;;
12776;SDS011;6452;41.572;23.732;2023-04-25T09:54:46;1.25;;;1.25;;
12776;SDS011;6452;41.572;23.732;2023-04-25T09:59:39;1.20;;;1.20;;
12776;SDS011;6452;41.572;23.732;2023-04-25T10:02:06;1.42;;;1.42;;
12776;SDS011;6452;41.572;23.732;2023-04-25T10:04:34;1.38;;;1.38;;
12776;SDS011;6452;41.572;23.732;2023-04-25T10:07:01;1.10;;;1.10;;
12776;SDS011;6452;41.572;23.732;2023-04-25T10:09:29;1.20;;;1.20;;
12776;SDS011;6452;41.572;23.732;2023-04-25T10:11:59;1.33;;;1.30;;
12776;SDS011;6452;41.572;23.732;2023-04-25T10:14:25;1.10;;;1.10;;
12776;SDS011;6452;41.572;23.732;2023-04-25T10:16:52;1.20;;;1.20;;
12776;SDS011;6452;41.572;23.732;2023-04-25T10:19:19;1.38;;;0.90;;
12776;SDS011;6452;41.572;23.732;2023-04-25T10:21:51;1.17;;;1.10;;
12776;SDS011;6452;41.572;23.732;2023-04-25T10:24:17;1.20;;;1.20;;
12776;SDS011;6452;41.572;23.732;2023-04-25T10:26:45;1.00;;;1.00;;
12776;SDS011;6452;41.572;23.732;2023-04-25T10:29:12;0.80;;;0.80;;
12776;SDS011;6452;41.572;23.732;2023-04-25T10:31:45;2.25;;;1.30;;
12776;SDS011;6452;41.572;23.732;2023-04-25T10:34:10;0.85;;;0.85;;
12776;SDS011;6452;41.572;23.732;2023-04-25T10:36:36;1.00;;;1.00;;
12776;SDS011;6452;41.572;23.732;2023-04-25T10:39:03;1.15;;;1.13;;
12776;SDS011;6452;41.572;23.732;2023-04-25T10:41:32;0.80;;;0.80;;
12776;SDS011;6452;41.572;23.732;2023-04-25T10:44:11;1.23;;;1.13;;
12776;SDS011;6452;41.572;23.732;2023-04-25T10:46:37;1.00;;;0.93;;
12776;SDS011;6452;41.572;23.732;2023-04-25T10:49:03;1.00;;;0.90;;
12776;SDS011;6452;41.572;23.732;2023-04-25T10:51:30;0.90;;;0.90;;
12776;SDS011;6452;41.572;23.732;2023-04-25T10:54:01;0.80;;;0.80;;
12776;SDS011;6452;41.572;23.732;2023-04-25T10:59:06;0.95;;;0.90;;
12776;SDS011;6452;41.572;23.732;2023-04-25T11:01:36;0.50;;;0.50;;
12776;SDS011;6452;41.572;23.732;2023-04-25T11:04:03;0.90;;;0.90;;
12776;SDS011;6452;41.572;23.732;2023-04-25T11:09:13;0.60;;;0.60;;
12776;SDS011;6452;41.572;23.732;2023-04-25T11:11:40;1.00;;;1.00;;
12776;SDS011;6452;41.572;23.732;2023-04-25T11:14:06;0.60;;;0.60;;
12776;SDS011;6452;41.572;23.732;2023-04-25T11:16:32;0.90;;;0.90;;
12776;SDS011;6452;41.572;23.732;2023-04-25T11:18:58;1.02;;;1.02;;
12776;SDS011;6452;41.572;23.732;2023-04-25T11:21:27;0.95;;;0.95;;
12776;SDS011;6452;41.572;23.732;2023-04-25T11:23:54;0.88;;;0.88;;
12776;SDS011;6452;41.572;23.732;2023-04-25T11:26:20;0.90;;;0.90;;
12776;SDS011;6452;41.572;23.732;2023-04-25T11:28:50;1.20;;;1.15;;
12776;SDS011;6452;41.572;23.732;2023-04-25T11:31:18;1.00;;;1.00;;
12776;SDS011;6452;41.572;23.732;2023-04-25T11:33:45;0.93;;;0.93;;
12776;SDS011;6452;41.572;23.732;2023-04-25T11:36:12;0.95;;;0.95;;
12776;SDS011;6452;41.572;23.732;2023-04-25T11:38:38;0.80;;;0.80;;
12776;SDS011;6452;41.572;23.732;2023-04-25T11:41:05;0.50;;;0.50;;
12776;SDS011;6452;41.572;23.732;2023-04-25T11:43:32;2.35;;;0.90;;
12776;SDS011;6452;41.572;23.732;2023-04-25T11:45:58;1.00;;;1.00;;
12776;SDS011;6452;41.572;23.732;2023-04-25T11:48:24;0.60;;;0.60;;
12776;SDS011;6452;41.572;23.732;2023-04-25T11:50:50;0.80;;;0.80;;
12776;SDS011;6452;41.572;23.732;2023-04-25T11:53:17;0.57;;;0.57;;
12776;SDS011;6452;41.572;23.732;2023-04-25T11:55:43;1.05;;;0.50;;
12776;SDS011;6452;41.572;23.732;2023-04-25T11:58:09;0.55;;;0.55;;
12776;SDS011;6452;41.572;23.732;2023-04-25T12:00:35;0.60;;;0.60;;
12776;SDS011;6452;41.572;23.732;2023-04-25T12:03:01;0.65;;;0.65;;
12776;SDS011;6452;41.572;23.732;2023-04-25T12:05:29;0.70;;;0.70;;
12776;SDS011;6452;41.572;23.732;2023-04-25T12:08:11;0.60;;;0.60;;
12776;SDS011;6452;41.572;23.732;2023-04-25T12:10:38;0.70;;;0.70;;
12776;SDS011;6452;41.572;23.732;2023-04-25T12:16:04;1.00;;;1.00;;
12776;SDS011;6452;41.572;23.732;2023-04-25T12:18:31;0.80;;;0.80;;
12776;SDS011;6452;41.572;23.732;2023-04-25T12:21:09;1.05;;;1.05;;
12776;SDS011;6452;41.572;23.732;2023-04-25T12:23:35;1.20;;;1.10;;
12776;SDS011;6452;41.572;23.732;2023-04-25T12:26:09;1.10;;;1.10;;
12776;SDS011;6452;41.572;23.732;2023-04-25T12:28:35;1.05;;;1.02;;
12776;SDS011;6452;41.572;23.732;2023-04-25T12:31:02;0.90;;;0.90;;
12776;SDS011;6452;41.572;23.732;2023-04-25T12:33:29;0.90;;;0.90;;
12776;SDS011;6452;41.572;23.732;2023-04-25T12:35:56;0.60;;;0.60;;
12776;SDS011;6452;41.572;23.732;2023-04-25T12:38:24;0.80;;;0.80;;
12776;SDS011;6452;41.572;23.732;2023-04-25T12:40:53;0.70;;;0.70;;
12776;SDS011;6452;41.572;23.732;2023-04-25T12:43:19;0.80;;;0.80;;
12776;SDS011;6452;41.572;23.732;2023-04-25T12:45:50;0.70;;;0.70;;
12776;SDS011;6452;41.572;23.732;2023-04-25T12:48:21;0.70;;;0.70;;
12776;SDS011;6452;41.572;23.732;2023-04-25T12:50:47;0.60;;;0.60;;
12776;SDS011;6452;41.572;23.732;2023-04-25T12:53:33;1.08;;;0.50;;
12776;SDS011;6452;41.572;23.732;2023-04-25T12:56:03;0.60;;;0.60;;
12776;SDS011;6452;41.572;23.732;2023-04-25T12:58:28;0.60;;;0.60;;
12776;SDS011;6452;41.572;23.732;2023-04-25T13:00:54;0.60;;;0.60;;
12776;SDS011;6452;41.572;23.732;2023-04-25T13:03:21;0.82;;;0.82;;
12776;SDS011;6452;41.572;23.732;2023-04-25T13:05:47;0.60;;;0.60;;
12776;SDS011;6452;41.572;23.732;2023-04-25T13:08:14;0.70;;;0.68;;
12776;SDS011;6452;41.572;23.732;2023-04-25T13:10:40;0.77;;;0.77;;
12776;SDS011;6452;41.572;23.732;2023-04-25T13:13:07;0.80;;;0.80;;
12776;SDS011;6452;41.572;23.732;2023-04-25T13:15:34;0.90;;;0.90;;
12776;SDS011;6452;41.572;23.732;2023-04-25T13:18:00;1.08;;;1.00;;
12776;SDS011;6452;41.572;23.732;2023-04-25T13:20:26;0.82;;;0.82;;
12776;SDS011;6452;41.572;23.732;2023-04-25T13:22:53;0.98;;;0.90;;
12776;SDS011;6452;41.572;23.732;2023-04-25T13:25:19;1.13;;;1.13;;
12776;SDS011;6452;41.572;23.732;2023-04-25T13:27:47;1.02;;;1.02;;
12776;SDS011;6452;41.572;23.732;2023-04-25T13:30:13;1.30;;;1.30;;
12776;SDS011;6452;41.572;23.732;2023-04-25T13:32:39;0.90;;;0.90;;
12776;SDS011;6452;41.572;23.732;2023-04-25T13:35:06;1.00;;;1.00;;
12776;SDS011;6452;41.572;23.732;2023-04-25T13:37:34;1.00;;;1.00;;
12776;SDS011;6452;41.572;23.732;2023-04-25T13:40:00;0.60;;;0.60;;
12776;SDS011;6452;41.572;23.732;2023-04-25T13:42:26;0.75;;;0.75;;
12776;SDS011;6452;41.572;23.732;2023-04-25T13:44:52;0.65;;;0.65;;
12776;SDS011;6452;41.572;23.732;2023-04-25T13:47:18;2.15;;;0.70;;
12776;SDS011;6452;41.572;23.732;2023-04-25T13:49:44;1.23;;;1.23;;
12776;SDS011;6452;41.572;23.732;2023-04-25T13:52:11;2.47;;;1.25;;
12776;SDS011;6452;41.572;23.732;2023-04-25T13:54:36;2.53;;;1.10;;
12776;SDS011;6452;41.572;23.732;2023-04-25T13:57:03;0.82;;;0.82;;
12776;SDS011;6452;41.572;23.732;2023-04-25T13:59:29;1.48;;;1.38;;
12776;SDS011;6452;41.572;23.732;2023-04-25T14:01:55;0.93;;;0.93;;
12776;SDS011;6452;41.572;23.732;2023-04-25T14:04:21;1.33;;;1.23;;
12776;SDS011;6452;41.572;23.732;2023-04-25T14:06:47;0.80;;;0.80;;
12776;SDS011;6452;41.572;23.732;2023-04-25T14:09:13;0.90;;;0.90;;
12776;SDS011;6452;41.572;23.732;2023-04-25T14:11:40;0.98;;;0.98;;
12776;SDS011;6452;41.572;23.732;2023-04-25T14:14:06;1.50;;;0.82;;
12776;SDS011;6452;41.572;23.732;2023-04-25T14:16:33;0.80;;;0.80;;
12776;SDS011;6452;41.572;23.732;2023-04-25T14:18:59;0.98;;;0.80;;
12776;SDS011;6452;41.572;23.732;2023-04-25T14:21:26;0.80;;;0.80;;
12776;SDS011;6452;41.572;23.732;2023-04-25T14:23:56;0.80;;;0.80;;
12776;SDS011;6452;41.572;23.732;2023-04-25T14:26:21;1.00;;;1.00;;
12776;SDS011;6452;41.572;23.732;2023-04-25T14:28:47;0.90;;;0.80;;
12776;SDS011;6452;41.572;23.732;2023-04-25T14:31:14;0.68;;;0.68;;
12776;SDS011;6452;41.572;23.732;2023-04-25T14:33:40;0.70;;;0.70;;
12776;SDS011;6452;41.572;23.732;2023-04-25T14:36:08;1.40;;;1.33;;
12776;SDS011;6452;41.572;23.732;2023-04-25T14:38:34;0.98;;;0.98;;
12776;SDS011;6452;41.572;23.732;2023-04-25T14:41:00;3.30;;;1.13;;
12776;SDS011;6452;41.572;23.732;2023-04-25T14:43:26;1.65;;;1.55;;
12776;SDS011;6452;41.572;23.732;2023-04-25T14:45:53;0.85;;;0.85;;
12776;SDS011;6452;41.572;23.732;2023-04-25T14:48:19;0.57;;;0.57;;
12776;SDS011;6452;41.572;23.732;2023-04-25T14:50:45;0.50;;;0.50;;
12776;SDS011;6452;41.572;23.732;2023-04-25T14:53:12;0.50;;;0.50;;
12776;SDS011;6452;41.572;23.732;2023-04-25T14:55:38;0.80;;;0.80;;
12776;SDS011;6452;41.572;23.732;2023-04-25T14:58:04;0.68;;;0.68;;